Time;durP1;ratioP1;P1;durP2;ratioP2;P2;SDS_P1;SDS_P2;PMS_P1;PMS_P2;Temp;Humidity;BMP_temperature;BMP_pressure;BME280_temperature;BME280_humidity;BME280_pressure;Samples;Min_cycle;Max_cycle;Signal;HPM_P1;HPM_P2
2022/07/06 00:03:01;;;;;;;2.47;1.60;;;22.10;22.70;;;;;;10325195;28;20230;-73
2022/07/06 00:08:05;;;;;;;2.27;1.50;;;21.90;23.10;;;;;;10321280;28;20288;-74
2022/07/06 00:13:08;;;;;;;2.37;1.80;;;21.80;23.10;;;;;;10320045;28;20222;-75
2022/07/06 00:18:13;;;;;;;1.90;1.70;;;21.70;23.00;;;;;;10323445;28;20223;-73
2022/07/06 00:23:16;;;;;;;1.83;1.73;;;21.50;23.70;;;;;;10320559;28;20238;-73
2022/07/06 00:28:20;;;;;;;3.33;1.73;;;21.30;23.50;;;;;;10323831;28;20227;-74
2022/07/06 00:33:25;;;;;;;1.53;1.40;;;21.20;23.60;;;;;;10322586;28;20241;-73
2022/07/06 00:38:28;;;;;;;1.40;1.30;;;21.10;24.00;;;;;;10325876;28;20235;-76
2022/07/06 00:43:47;;;;;;;2.00;1.90;;;21.10;23.80;;;;;;10315555;28;20261;-76
2022/07/06 00:48:52;;;;;;;1.40;1.30;;;21.10;24.70;;;;;;10325790;28;20738;-76
2022/07/06 00:53:58;;;;;;;2.00;1.60;;;21.00;24.30;;;;;;10323790;28;20709;-75
2022/07/06 00:59:03;;;;;;;2.30;1.60;;;21.00;24.30;;;;;;10321093;28;20215;-73
2022/07/06 01:04:08;;;;;;;1.97;1.50;;;21.00;24.20;;;;;;10318115;28;20242;-75
2022/07/06 01:09:12;;;;;;;1.53;1.43;;;20.90;24.30;;;;;;10320612;28;20241;-75
2022/07/06 01:14:17;;;;;;;2.07;1.90;;;20.80;24.40;;;;;;10320246;28;20242;-71
2022/07/06 01:19:21;;;;;;;1.80;1.40;;;20.60;24.40;;;;;;10322618;28;20601;-71
2022/07/06 01:24:26;;;;;;;2.50;1.60;;;20.40;25.00;;;;;;10324141;28;20605;-71
2022/07/06 01:29:30;;;;;;;2.07;1.70;;;20.40;25.60;;;;;;10322926;28;20793;-71
2022/07/06 01:34:33;;;;;;;1.80;1.70;;;20.40;25.00;;;;;;10319529;28;20230;-73
2022/07/06 01:39:37;;;;;;;1.67;1.57;;;20.40;25.40;;;;;;10319475;28;20242;-75
2022/07/06 01:44:41;;;;;;;1.50;1.40;;;20.30;25.50;;;;;;10323967;28;20234;-75
2022/07/06 01:49:44;;;;;;;3.33;1.40;;;20.20;25.10;;;;;;10326429;28;20250;-75
2022/07/06 01:54:49;;;;;;;1.90;1.70;;;20.10;25.40;;;;;;10325701;28;20245;-75
2022/07/06 01:59:52;;;;;;;1.70;1.60;;;20.00;25.40;;;;;;10325909;28;20234;-73
2022/07/06 02:04:55;;;;;;;2.03;1.70;;;19.90;25.30;;;;;;10325570;28;20241;-73
2022/07/06 02:10:00;;;;;;;1.50;1.40;;;19.90;25.30;;;;;;10326762;28;20227;-76
2022/07/06 02:15:03;;;;;;;1.80;1.63;;;19.90;25.50;;;;;;10320156;28;20233;-75
2022/07/06 02:20:07;;;;;;;2.77;1.90;;;19.90;25.30;;;;;;10336870;28;20223;-73
2022/07/06 02:25:12;;;;;;;2.37;1.90;;;19.90;25.30;;;;;;10323831;28;20643;-73
2022/07/06 02:30:15;;;;;;;1.77;1.67;;;19.80;25.90;;;;;;10323874;28;20742;-71
2022/07/06 02:35:18;;;;;;;1.80;1.63;;;19.70;25.50;;;;;;10329835;28;20231;-71
2022/07/06 02:40:23;;;;;;;1.67;1.57;;;19.60;25.80;;;;;;10326256;28;20314;-71
2022/07/06 02:45:26;;;;;;;1.70;1.60;;;19.60;26.30;;;;;;10415755;23;20237;-73
2022/07/06 02:50:30;;;;;;;1.73;1.63;;;19.60;26.00;;;;;;10390803;28;20240;-73
2022/07/06 02:55:34;;;;;;;1.53;1.43;;;19.60;25.80;;;;;;10394477;28;20252;-73
2022/07/06 03:00:38;;;;;;;1.80;1.70;;;19.50;26.20;;;;;;10393751;28;20242;-74
2022/07/06 03:05:41;;;;;;;3.10;1.63;;;19.40;26.10;;;;;;10399664;28;20241;-74
2022/07/06 03:10:45;;;;;;;1.87;1.77;;;19.40;26.20;;;;;;10395923;28;20225;-74
2022/07/06 03:15:49;;;;;;;1.80;1.70;;;19.30;26.70;;;;;;10398192;28;20230;-73
2022/07/06 03:20:52;;;;;;;2.10;1.90;;;19.30;26.40;;;;;;10397144;28;20226;-74
2022/07/06 03:25:56;;;;;;;1.77;1.67;;;19.30;26.40;;;;;;10397362;28;20225;-74
2022/07/06 03:31:00;;;;;;;1.70;1.60;;;19.20;26.90;;;;;;10392080;28;20234;-73
2022/07/06 03:36:04;;;;;;;3.37;1.80;;;19.10;26.60;;;;;;10409063;28;20225;-74
2022/07/06 03:41:09;;;;;;;2.43;1.67;;;19.10;26.70;;;;;;10434626;28;20227;-73
2022/07/06 03:46:12;;;;;;;1.60;1.50;;;19.10;27.10;;;;;;10437652;28;20225;-73
2022/07/06 03:51:16;;;;;;;2.07;1.83;;;19.00;26.90;;;;;;10433690;28;20252;-74
2022/07/06 03:56:30;;;;;;;1.97;1.83;;;19.00;27.00;;;;;;10432405;28;20225;-74
2022/07/06 04:01:33;;;;;;;2.50;1.40;;;19.00;27.50;;;;;;10444559;28;20225;-74
2022/07/06 04:06:36;;;;;;;2.30;2.10;;;18.90;27.00;;;;;;10433831;28;20248;-73
2022/07/06 04:11:41;;;;;;;2.27;1.97;;;18.90;27.30;;;;;;10436507;28;20231;-74
2022/07/06 04:16:44;;;;;;;3.23;2.00;;;18.90;27.80;;;;;;10432683;28;20232;-74
2022/07/06 04:21:48;;;;;;;2.60;1.83;;;18.80;27.50;;;;;;10432249;28;20812;-73
2022/07/06 04:26:52;;;;;;;2.00;1.90;;;18.70;27.50;;;;;;10431793;28;20232;-74
2022/07/06 04:31:55;;;;;;;2.90;1.90;;;18.60;28.00;;;;;;10431798;28;20745;-74
2022/07/06 04:36:59;;;;;;;1.93;1.70;;;18.60;27.80;;;;;;10434931;28;20315;-73
2022/07/06 04:42:04;;;;;;;1.83;1.70;;;18.60;28.00;;;;;;10436243;28;20224;-74
2022/07/06 04:47:07;;;;;;;2.30;2.20;;;18.60;28.60;;;;;;10427628;28;20225;-74
2022/07/06 04:52:11;;;;;;;2.07;1.97;;;18.70;28.40;;;;;;10427270;28;20637;-73
2022/07/06 04:57:15;;;;;;;4.60;1.97;;;18.70;28.50;;;;;;10433299;28;20221;-73
2022/07/06 05:02:19;;;;;;;1.93;1.80;;;18.80;29.00;;;;;;10432997;28;20574;-73
2022/07/06 05:07:22;;;;;;;2.13;2.00;;;18.90;28.70;;;;;;10422121;28;20233;-74
2022/07/06 05:12:27;;;;;;;3.70;1.83;;;19.10;28.70;;;;;;10424507;28;20312;-73
2022/07/06 05:17:30;;;;;;;1.90;1.77;;;19.30;29.10;;;;;;10432503;28;20910;-74
2022/07/06 05:22:33;;;;;;;2.30;2.10;;;19.40;28.80;;;;;;10431163;28;20271;-73
2022/07/06 05:27:38;;;;;;;2.20;1.80;;;19.60;28.70;;;;;;10431972;28;20240;-74
2022/07/06 05:32:41;;;;;;;2.00;1.80;;;19.80;28.80;;;;;;10435581;28;20607;-73
2022/07/06 05:37:44;;;;;;;2.50;2.30;;;19.90;28.60;;;;;;10441806;28;20975;-73
2022/07/06 05:42:49;;;;;;;2.80;1.93;;;20.00;28.60;;;;;;10441314;28;20256;-73
2022/07/06 05:53:13;;;;;;;2.27;2.17;;;20.30;28.80;;;;;;10440585;28;20255;-73
2022/07/06 05:58:24;;;;;;;2.83;2.10;;;20.40;28.70;;;;;;10438002;28;20232;-74
2022/07/06 06:03:28;;;;;;;2.60;2.20;;;20.50;28.80;;;;;;10436627;28;20905;-74
2022/07/06 06:08:31;;;;;;;2.10;2.00;;;20.60;28.60;;;;;;10435008;28;20241;-74
2022/07/06 06:13:36;;;;;;;2.37;2.17;;;20.80;28.80;;;;;;10437747;28;20736;-75
2022/07/06 06:18:39;;;;;;;3.07;2.00;;;20.90;28.70;;;;;;10439322;28;20229;-75
2022/07/06 06:23:44;;;;;;;4.00;2.37;;;21.00;28.40;;;;;;10436792;28;20220;-75
2022/07/06 06:28:49;;;;;;;3.07;2.03;;;21.10;28.10;;;;;;10435795;28;20237;-75
2022/07/06 06:33:52;;;;;;;4.50;2.00;;;21.30;28.10;;;;;;10441812;28;20316;-75
2022/07/06 06:38:56;;;;;;;2.10;2.00;;;21.40;27.90;;;;;;10440238;28;20232;-75
2022/07/06 06:44:00;;;;;;;2.27;2.07;;;21.60;27.90;;;;;;10441580;28;20406;-74
2022/07/06 06:49:03;;;;;;;2.43;1.83;;;21.70;27.90;;;;;;10441373;28;20226;-74
2022/07/06 06:54:07;;;;;;;1.97;1.87;;;21.80;28.10;;;;;;10440934;28;20702;-74
2022/07/06 06:59:11;;;;;;;2.10;2.00;;;22.00;28.00;;;;;;10441328;28;20225;-74
2022/07/06 07:04:20;;;;;;;1.93;1.60;;;22.20;28.00;;;;;;10441199;28;20611;-75
2022/07/06 07:09:23;;;;;;;2.20;2.00;;;22.40;27.80;;;;;;10440011;28;20278;-74
2022/07/06 07:14:28;;;;;;;1.90;1.70;;;22.50;27.40;;;;;;10437450;28;20835;-75
2022/07/06 07:19:31;;;;;;;2.50;2.20;;;22.70;27.20;;;;;;10430118;28;20236;-74
2022/07/06 07:24:34;;;;;;;2.40;2.20;;;22.80;27.20;;;;;;10436162;28;20232;-75
2022/07/06 07:29:39;;;;;;;1.80;1.70;;;23.00;27.30;;;;;;10439976;28;20229;-74
2022/07/06 07:34:42;;;;;;;2.50;1.90;;;23.10;27.40;;;;;;10440019;28;20229;-75
2022/07/06 07:39:45;;;;;;;2.20;2.00;;;23.30;27.50;;;;;;10434427;28;20245;-74
2022/07/06 07:44:50;;;;;;;2.10;1.90;;;23.40;27.60;;;;;;10437719;28;20229;-74
2022/07/06 07:49:53;;;;;;;3.47;2.17;;;23.50;27.70;;;;;;10434184;28;20701;-74
2022/07/06 07:54:56;;;;;;;2.40;1.97;;;23.70;27.80;;;;;;10433572;28;20235;-74
2022/07/06 08:00:24;;;;;;;2.70;2.27;;;23.80;27.60;;;;;;10433479;28;20250;-74
2022/07/06 08:05:30;;;;;;;2.50;2.30;;;23.80;27.70;;;;;;10432095;28;20222;-74
2022/07/06 08:10:33;;;;;;;2.30;2.00;;;23.90;27.30;;;;;;10429786;28;20257;-74
2022/07/06 08:15:58;;;;;;;2.40;2.20;;;24.10;27.40;;;;;;10429471;28;20256;-74
2022/07/06 08:21:01;;;;;;;2.43;2.20;;;24.20;27.20;;;;;;10435857;28;20237;-74
2022/07/06 08:26:24;;;;;;;2.37;2.17;;;24.30;27.20;;;;;;10430242;28;20221;-74
2022/07/06 08:31:31;;;;;;;2.33;2.13;;;24.50;27.00;;;;;;10428502;28;20228;-75
2022/07/06 08:36:54;;;;;;;2.50;2.30;;;24.70;26.40;;;;;;10435458;28;20626;-74
2022/07/06 08:41:59;;;;;;;2.97;2.00;;;24.90;26.50;;;;;;10430807;28;20742;-74
2022/07/06 08:47:06;;;;;;;2.97;2.17;;;25.10;26.10;;;;;;10426646;28;20220;-74
2022/07/06 08:52:10;;;;;;;2.47;2.27;;;25.30;25.80;;;;;;10434599;28;20229;-74
2022/07/06 08:57:14;;;;;;;2.10;2.00;;;25.50;25.90;;;;;;10428106;28;20233;-74
2022/07/06 09:02:19;;;;;;;2.10;2.00;;;25.70;25.50;;;;;;10429393;28;20224;-74
2022/07/06 09:07:23;;;;;;;2.83;2.20;;;25.90;25.30;;;;;;10431888;28;20249;-74
2022/07/06 09:12:47;;;;;;;2.60;2.27;;;26.10;25.10;;;;;;10433612;28;20227;-75
2022/07/06 09:17:57;;;;;;;2.77;2.10;;;26.20;24.80;;;;;;10429084;28;20227;-74
2022/07/06 09:23:02;;;;;;;2.60;2.40;;;26.40;24.00;;;;;;10430931;28;20284;-74
2022/07/06 09:28:06;;;;;;;2.13;1.93;;;26.60;24.70;;;;;;10430379;28;20229;-75
2022/07/06 09:33:12;;;;;;;2.90;2.00;;;26.90;24.60;;;;;;10437349;28;20308;-74
2022/07/06 09:38:16;;;;;;;2.53;1.90;;;27.10;24.00;;;;;;10434505;28;20229;-74
2022/07/06 09:43:22;;;;;;;2.60;2.40;;;27.30;24.50;;;;;;10437974;28;20694;-74
2022/07/06 09:48:28;;;;;;;2.27;2.07;;;27.50;23.70;;;;;;10429075;28;20701;-74
2022/07/06 09:53:35;;;;;;;2.53;2.23;;;27.60;23.30;;;;;;10430921;28;20221;-74
2022/07/06 09:58:39;;;;;;;2.87;1.90;;;27.80;23.40;;;;;;10431045;28;20229;-75
2022/07/06 10:04:04;;;;;;;2.00;1.90;;;28.00;23.20;;;;;;10429109;28;20594;-75
2022/07/06 10:09:09;;;;;;;3.10;2.10;;;28.20;22.20;;;;;;10429397;28;20705;-75
2022/07/06 10:14:20;;;;;;;2.10;1.90;;;28.20;22.10;;;;;;10429809;28;20715;-75
2022/07/06 10:19:25;;;;;;;2.47;2.27;;;28.30;21.50;;;;;;10431033;28;20239;-75
2022/07/06 10:24:30;;;;;;;3.97;2.00;;;28.30;21.70;;;;;;10440750;28;20472;-75
2022/07/06 10:29:33;;;;;;;2.63;2.20;;;28.30;22.20;;;;;;10429622;28;20295;-75
2022/07/06 10:34:38;;;;;;;2.17;1.97;;;28.40;21.60;;;;;;10443904;28;20240;-75
2022/07/06 10:45:02;;;;;;;2.37;2.17;;;28.40;21.10;;;;;;10433115;28;20214;-75
2022/07/06 10:50:08;;;;;;;2.63;2.20;;;28.30;21.00;;;;;;10430310;28;20236;-76
2022/07/06 10:55:30;;;;;;;2.07;1.93;;;28.20;20.40;;;;;;10434062;28;20743;-75
2022/07/06 11:00:53;;;;;;;2.93;1.90;;;28.00;20.10;;;;;;10436528;28;20232;-74
2022/07/06 11:06:01;;;;;;;2.00;1.90;;;28.00;20.90;;;;;;10432465;28;20240;-74
2022/07/06 11:11:16;;;;;;;2.23;2.03;;;27.90;20.90;;;;;;10419073;28;20684;-74
2022/07/06 11:16:20;;;;;;;2.10;1.90;;;27.90;21.70;;;;;;10414817;28;20225;-73
2022/07/06 11:21:33;;;;;;;2.00;1.80;;;28.00;21.40;;;;;;10416763;28;20229;-74
2022/07/06 11:26:38;;;;;;;1.80;1.60;;;28.20;20.80;;;;;;10416287;28;20225;-74
2022/07/06 11:31:44;;;;;;;1.90;1.80;;;28.30;20.20;;;;;;10420243;28;20225;-73
2022/07/06 11:36:49;;;;;;;1.47;1.37;;;28.40;20.30;;;;;;10418265;28;20225;-73
2022/07/06 11:41:53;;;;;;;1.30;1.27;;;28.50;19.20;;;;;;10412155;28;20725;-74
2022/07/06 11:46:59;;;;;;;2.67;1.60;;;28.60;20.40;;;;;;10417912;28;20232;-74
2022/07/06 11:52:07;;;;;;;1.43;1.40;;;28.60;19.90;;;;;;10417263;28;20250;-73
2022/07/06 11:57:11;;;;;;;1.50;1.40;;;28.70;18.50;;;;;;10417812;28;20247;-74
2022/07/06 12:02:16;;;;;;;2.30;1.40;;;28.80;19.10;;;;;;10415376;28;20256;-74
2022/07/06 12:07:21;;;;;;;2.10;1.37;;;28.80;18.80;;;;;;10405941;28;20226;-72
2022/07/06 12:12:25;;;;;;;1.20;1.20;;;28.80;19.30;;;;;;10425701;28;20235;-73
2022/07/06 12:17:28;;;;;;;2.00;1.60;;;28.80;18.70;;;;;;10431953;28;20883;-73
2022/07/06 12:22:33;;;;;;;1.63;1.53;;;28.70;18.50;;;;;;10435557;28;20316;-74
2022/07/06 12:27:36;;;;;;;1.40;1.30;;;28.60;18.30;;;;;;10433549;28;20243;-73
2022/07/06 12:32:40;;;;;;;1.40;1.30;;;28.60;18.70;;;;;;10424618;28;20225;-73
2022/07/06 12:37:57;;;;;;;1.50;1.40;;;28.60;18.30;;;;;;10431577;28;20602;-73
2022/07/06 12:43:00;;;;;;;1.97;1.30;;;28.70;18.20;;;;;;10429480;28;20253;-73
2022/07/06 12:48:05;;;;;;;1.60;1.50;;;28.80;18.30;;;;;;10426868;28;20608;-73
2022/07/06 12:53:26;;;;;;;2.97;1.60;;;28.90;17.80;;;;;;10429897;28;20323;-72
2022/07/06 12:58:30;;;;;;;2.30;1.17;;;28.90;17.20;;;;;;10432905;28;20225;-72
2022/07/06 13:03:40;;;;;;;3.97;1.40;;;28.90;17.90;;;;;;10430842;28;20818;-72
2022/07/06 13:08:44;;;;;;;1.30;1.30;;;28.90;15.90;;;;;;10420493;28;20236;-72
2022/07/06 13:13:48;;;;;;;1.20;1.20;;;29.00;17.80;;;;;;10426632;28;20232;-75
2022/07/06 13:18:51;;;;;;;1.80;1.40;;;29.00;17.50;;;;;;10426192;28;20232;-74
2022/07/06 13:23:56;;;;;;;1.33;1.23;;;29.00;17.20;;;;;;10426792;28;20217;-74
2022/07/06 13:28:59;;;;;;;1.20;1.20;;;28.90;17.00;;;;;;10429392;28;20236;-73
2022/07/06 13:34:03;;;;;;;1.43;1.40;;;28.80;17.20;;;;;;10426735;28;20275;-73
2022/07/06 13:39:08;;;;;;;1.40;1.30;;;28.70;17.30;;;;;;10429002;28;20251;-73
2022/07/06 13:44:11;;;;;;;1.63;1.50;;;28.70;17.00;;;;;;10429142;28;20694;-74
2022/07/06 13:49:17;;;;;;;1.50;1.40;;;28.80;17.50;;;;;;10432196;28;20807;-74
2022/07/06 13:54:23;;;;;;;1.40;1.30;;;28.90;17.10;;;;;;10433963;28;20759;-74
2022/07/06 13:59:26;;;;;;;3.00;1.40;;;28.90;17.30;;;;;;10443335;28;20235;-73
2022/07/06 14:04:29;;;;;;;1.33;1.20;;;28.90;17.00;;;;;;10435611;28;20719;-74
2022/07/06 14:09:34;;;;;;;1.50;1.40;;;29.00;17.00;;;;;;10437624;28;20951;-74
2022/07/06 14:14:37;;;;;;;1.53;1.43;;;29.10;16.50;;;;;;10441848;28;20251;-73
2022/07/06 14:19:40;;;;;;;3.37;1.50;;;29.00;16.50;;;;;;10434620;28;20220;-73
2022/07/06 14:24:45;;;;;;;1.33;1.23;;;29.00;16.60;;;;;;10435532;28;20651;-74
2022/07/06 14:29:48;;;;;;;1.47;1.37;;;29.00;16.20;;;;;;10440961;28;20239;-73
2022/07/06 14:34:52;;;;;;;1.83;1.63;;;28.90;16.20;;;;;;10437989;28;20221;-72
2022/07/06 14:39:56;;;;;;;2.00;1.40;;;28.90;16.20;;;;;;10432909;28;20239;-71
2022/07/06 14:44:59;;;;;;;1.50;1.40;;;28.80;16.20;;;;;;10435201;28;20225;-74
2022/07/06 14:50:03;;;;;;;3.50;1.40;;;28.80;16.40;;;;;;10433543;28;20249;-74
2022/07/06 14:55:08;;;;;;;2.60;1.40;;;28.80;16.30;;;;;;10440043;28;20235;-73
2022/07/06 15:00:17;;;;;;;1.30;1.30;;;28.80;16.30;;;;;;10415082;28;20225;-73
2022/07/06 15:05:21;;;;;;;2.43;1.40;;;28.80;16.50;;;;;;10426669;28;20236;-73
2022/07/06 15:10:25;;;;;;;2.00;1.40;;;28.80;16.60;;;;;;10428926;28;20228;-73
2022/07/06 15:15:29;;;;;;;1.30;1.27;;;28.70;16.30;;;;;;10436359;28;20228;-73
2022/07/06 15:20:52;;;;;;;2.50;1.53;;;28.80;16.80;;;;;;10431495;28;20224;-73
2022/07/06 15:25:57;;;;;;;1.43;1.33;;;28.90;16.50;;;;;;10442066;28;20231;-74
2022/07/06 15:31:00;;;;;;;1.60;1.50;;;28.90;16.40;;;;;;10440801;28;20243;-73
2022/07/06 15:36:03;;;;;;;1.37;1.27;;;29.00;16.40;;;;;;10429629;28;20225;-74
2022/07/06 15:41:08;;;;;;;1.53;1.43;;;28.90;16.30;;;;;;10434084;28;20582;-74
2022/07/06 15:46:12;;;;;;;2.10;1.60;;;29.00;16.10;;;;;;10430998;28;20224;-72
2022/07/06 15:51:16;;;;;;;3.33;1.60;;;29.00;16.40;;;;;;10439840;28;20271;-72
2022/07/06 15:56:21;;;;;;;1.70;1.60;;;29.00;16.20;;;;;;10431268;28;20256;-73
2022/07/06 16:01:24;;;;;;;2.43;1.50;;;29.00;16.00;;;;;;10430240;28;20654;-73
2022/07/06 16:06:27;;;;;;;2.10;1.63;;;29.10;16.20;;;;;;10424085;28;20230;-73
2022/07/06 16:11:32;;;;;;;1.40;1.40;;;29.10;16.00;;;;;;10426930;28;20221;-73
2022/07/06 16:16:37;;;;;;;1.60;1.50;;;29.00;15.80;;;;;;10433457;28;20237;-73
2022/07/06 16:21:40;;;;;;;3.13;1.50;;;28.80;15.90;;;;;;10426942;28;20996;-73
2022/07/06 16:26:45;;;;;;;1.77;1.50;;;28.70;16.20;;;;;;10430027;28;20224;-73
2022/07/06 16:31:48;;;;;;;1.67;1.57;;;28.60;16.30;;;;;;10434874;28;20263;-70
2022/07/06 16:36:51;;;;;;;1.73;1.63;;;28.60;16.30;;;;;;10434362;28;20267;-72
2022/07/06 16:41:56;;;;;;;1.70;1.60;;;28.60;16.30;;;;;;10428318;28;20229;-73
2022/07/06 16:46:59;;;;;;;1.70;1.60;;;28.50;16.10;;;;;;10425026;28;20647;-73
2022/07/06 16:52:03;;;;;;;2.10;1.40;;;28.40;16.40;;;;;;10431652;28;20227;-73
2022/07/06 16:57:08;;;;;;;2.80;1.40;;;28.40;16.40;;;;;;10426230;28;20221;-72
2022/07/06 17:02:11;;;;;;;1.83;1.50;;;28.40;16.20;;;;;;10429576;28;20221;-73
2022/07/06 17:07:14;;;;;;;1.47;1.47;;;28.40;16.40;;;;;;10436856;28;20223;-73
2022/07/06 17:12:19;;;;;;;1.60;1.50;;;28.50;16.40;;;;;;10433734;28;20221;-72
2022/07/06 17:17:22;;;;;;;2.17;1.43;;;28.60;16.10;;;;;;10429057;28;20259;-73
2022/07/06 17:22:25;;;;;;;2.63;1.70;;;28.70;16.20;;;;;;10441422;28;20256;-73
2022/07/06 17:27:30;;;;;;;1.47;1.37;;;28.60;16.10;;;;;;10432446;28;20478;-73
2022/07/06 17:32:33;;;;;;;1.60;1.50;;;28.60;15.90;;;;;;10429677;28;20745;-73
2022/07/06 17:37:36;;;;;;;1.63;1.53;;;28.50;16.10;;;;;;10439743;28;20243;-73
2022/07/06 17:42:41;;;;;;;1.70;1.60;;;28.40;15.90;;;;;;10430953;28;20251;-72
2022/07/06 17:47:44;;;;;;;1.57;1.30;;;28.40;15.90;;;;;;10430952;28;20221;-73
2022/07/06 17:52:48;;;;;;;2.00;1.53;;;28.20;16.20;;;;;;10431374;28;20221;-73
2022/07/06 17:57:52;;;;;;;1.83;1.37;;;28.20;16.30;;;;;;10427551;28;20224;-72
2022/07/06 18:02:55;;;;;;;1.50;1.40;;;28.10;15.90;;;;;;10439243;28;20221;-73
2022/07/06 18:08:00;;;;;;;1.50;1.40;;;28.00;16.10;;;;;;10436685;28;20232;-73
2022/07/06 18:13:05;;;;;;;1.40;1.30;;;27.90;16.10;;;;;;10437986;28;20229;-73
2022/07/06 18:18:08;;;;;;;2.60;1.40;;;27.80;16.30;;;;;;10438468;28;20233;-73
2022/07/06 18:23:12;;;;;;;1.40;1.30;;;27.70;16.40;;;;;;10427467;28;20225;-72
2022/07/06 18:28:17;;;;;;;1.10;1.10;;;27.60;16.40;;;;;;10427350;28;20228;-72
2022/07/06 18:33:21;;;;;;;1.50;1.40;;;27.50;16.60;;;;;;10430331;28;20227;-72
2022/07/06 18:38:25;;;;;;;1.40;1.30;;;27.50;16.70;;;;;;10419126;28;20232;-72
2022/07/06 18:43:30;;;;;;;1.23;1.23;;;27.40;16.80;;;;;;10433690;28;20233;-72
2022/07/06 18:48:33;;;;;;;1.63;1.40;;;27.30;17.00;;;;;;10435103;28;20225;-73
2022/07/06 18:53:36;;;;;;;3.83;1.50;;;27.30;17.10;;;;;;10433958;28;20225;-71
2022/07/06 18:58:41;;;;;;;1.20;1.20;;;27.20;17.00;;;;;;10430687;28;20244;-72
2022/07/06 19:03:45;;;;;;;3.63;1.40;;;27.10;17.70;;;;;;10427716;28;20228;-72
2022/07/06 19:08:48;;;;;;;1.83;1.20;;;27.00;17.20;;;;;;10431982;28;20321;-70
2022/07/06 19:13:53;;;;;;;2.20;1.13;;;26.90;17.20;;;;;;10431858;28;20571;-70
2022/07/06 19:18:56;;;;;;;2.00;1.40;;;26.80;17.30;;;;;;10432946;28;20228;-71
2022/07/06 19:23:59;;;;;;;1.50;1.40;;;26.70;17.30;;;;;;10431555;28;20831;-70
2022/07/06 19:29:04;;;;;;;1.53;1.43;;;26.50;17.50;;;;;;10432933;28;20225;-71
2022/07/06 19:34:07;;;;;;;1.30;1.30;;;26.40;17.80;;;;;;10425362;28;20319;-72
2022/07/06 19:39:11;;;;;;;1.70;1.60;;;26.30;17.80;;;;;;10429171;28;20224;-71
2022/07/06 19:44:16;;;;;;;1.80;1.70;;;26.20;18.10;;;;;;10430734;28;20227;-72
2022/07/06 19:49:20;;;;;;;1.83;1.70;;;26.10;18.50;;;;;;10427905;28;20232;-71
2022/07/06 19:54:23;;;;;;;1.50;1.40;;;26.00;18.40;;;;;;10426026;28;20239;-71
2022/07/06 19:59:27;;;;;;;1.70;1.60;;;25.80;18.80;;;;;;10434458;28;20236;-71
2022/07/06 20:04:31;;;;;;;2.40;1.70;;;25.70;18.90;;;;;;10427485;28;20229;-71
2022/07/06 20:09:35;;;;;;;2.67;1.80;;;25.70;18.90;;;;;;10429488;28;20221;-71
2022/07/06 20:14:39;;;;;;;2.37;1.70;;;25.70;18.90;;;;;;10430641;28;20219;-71
2022/07/06 20:19:43;;;;;;;1.83;1.70;;;25.50;18.80;;;;;;10428230;28;20232;-70
2022/07/06 20:24:46;;;;;;;3.07;1.90;;;25.40;18.70;;;;;;10426865;28;20255;-70
2022/07/06 20:29:51;;;;;;;2.50;1.70;;;25.30;18.90;;;;;;10426399;28;20233;-71
2022/07/06 20:34:54;;;;;;;3.43;1.97;;;25.10;19.30;;;;;;10428716;28;20224;-71
2022/07/06 20:39:58;;;;;;;1.97;1.87;;;24.90;19.20;;;;;;10428847;28;20229;-71
2022/07/06 20:45:02;;;;;;;1.50;1.40;;;24.80;19.30;;;;;;10429614;28;20224;-71
2022/07/06 20:50:08;;;;;;;3.90;2.00;;;24.70;19.50;;;;;;10428545;28;20709;-71
2022/07/06 20:55:11;;;;;;;2.00;1.60;;;24.50;19.50;;;;;;10424970;28;20228;-71
2022/07/06 21:00:17;;;;;;;2.23;1.70;;;24.40;19.50;;;;;;10426521;28;20236;-71
2022/07/06 21:05:22;;;;;;;1.93;1.80;;;24.30;19.80;;;;;;10429776;28;20717;-71
2022/07/06 21:10:25;;;;;;;1.67;1.57;;;24.20;19.70;;;;;;10429974;28;20240;-71
2022/07/06 21:15:32;;;;;;;1.87;1.73;;;24.20;19.60;;;;;;10428975;28;20235;-71
2022/07/06 21:20:35;;;;;;;3.17;1.63;;;24.10;19.60;;;;;;10427234;28;20555;-71
2022/07/06 21:25:38;;;;;;;1.50;1.40;;;24.10;19.50;;;;;;10427072;28;20225;-70
2022/07/06 21:30:44;;;;;;;1.90;1.80;;;24.00;19.50;;;;;;10429558;28;20225;-70
2022/07/06 21:35:47;;;;;;;1.63;1.53;;;23.90;19.70;;;;;;10426545;28;20225;-70
2022/07/06 21:40:50;;;;;;;1.63;1.53;;;23.80;19.60;;;;;;10431143;28;20236;-70
2022/07/06 21:45:55;;;;;;;1.70;1.60;;;23.70;19.70;;;;;;10433543;28;20229;-70
2022/07/06 21:50:59;;;;;;;2.57;1.43;;;23.60;19.80;;;;;;10426736;28;20238;-70
2022/07/06 21:56:02;;;;;;;1.63;1.53;;;23.50;19.70;;;;;;10429710;28;20244;-70
2022/07/06 22:01:07;;;;;;;3.17;1.33;;;23.50;19.80;;;;;;10429822;28;20217;-70
2022/07/06 22:06:10;;;;;;;1.70;1.60;;;23.30;19.90;;;;;;10430095;28;20925;-70
2022/07/06 22:11:13;;;;;;;2.13;1.60;;;23.30;19.90;;;;;;10433152;28;20588;-70
2022/07/06 22:16:20;;;;;;;1.70;1.50;;;23.10;20.00;;;;;;10433756;28;20225;-69
2022/07/06 22:21:24;;;;;;;1.47;1.37;;;22.90;20.30;;;;;;10438977;28;20592;-70
2022/07/06 22:26:27;;;;;;;1.47;1.37;;;22.80;20.30;;;;;;10434037;28;20230;-70
2022/07/06 22:31:31;;;;;;;1.77;1.60;;;22.70;20.30;;;;;;10436785;28;20232;-70
2022/07/06 22:36:35;;;;;;;1.90;1.60;;;22.70;20.50;;;;;;10435687;28;20228;-70
2022/07/06 22:41:38;;;;;;;2.10;1.67;;;22.60;20.50;;;;;;10431841;28;20233;-70
2022/07/06 22:46:43;;;;;;;1.50;1.40;;;22.50;20.50;;;;;;10439713;28;20221;-70
2022/07/06 22:51:46;;;;;;;2.03;1.50;;;22.30;20.60;;;;;;10433772;28;20244;-69
2022/07/06 22:56:49;;;;;;;1.70;1.50;;;22.20;20.60;;;;;;10435968;28;20220;-70
2022/07/06 23:01:54;;;;;;;1.87;1.50;;;22.10;20.60;;;;;;10438045;28;20716;-70
2022/07/06 23:06:57;;;;;;;1.63;1.40;;;22.10;20.90;;;;;;10434345;28;20237;-70
2022/07/06 23:12:02;;;;;;;1.60;1.40;;;22.00;21.20;;;;;;10429388;28;20229;-70
2022/07/06 23:17:07;;;;;;;1.53;1.43;;;22.00;20.70;;;;;;10435747;28;20312;-70
2022/07/06 23:22:10;;;;;;;1.77;1.57;;;22.00;20.80;;;;;;10434156;28;20220;-70
2022/07/06 23:27:13;;;;;;;2.50;1.50;;;22.10;20.70;;;;;;10433301;28;20233;-70
2022/07/06 23:32:18;;;;;;;2.27;1.60;;;22.10;20.70;;;;;;10432247;28;20222;-70
2022/07/06 23:37:21;;;;;;;2.37;1.63;;;22.10;20.60;;;;;;10434230;28;20230;-70
2022/07/06 23:42:24;;;;;;;1.50;1.40;;;22.10;20.50;;;;;;10425635;28;20233;-70
2022/07/06 23:47:32;;;;;;;1.60;1.50;;;22.00;20.50;;;;;;10435566;28;20808;-70
2022/07/06 23:52:35;;;;;;;1.47;1.37;;;22.00;20.80;;;;;;10430212;28;20312;-70
2022/07/06 23:57:38;;;;;;;1.77;1.50;;;22.00;20.70;;;;;;10430558;28;20248;-70
